This is the latest recevied weather packets stored in our database for station/object YD2UMH-10. If no packets are shown the sender has not sent any weather packets the latest 10 day(s).
| Time | Temp. | Humidity | Pressure | Rain* | Wind** | Luminosity | Snow |
|---|---|---|---|---|---|---|---|
| 1777878458 | 40.56° C | 87% | 988 hPa | - | - | 0 W/m² | - |
| 1777878135 | 37.78° C | 92% | 988 hPa | - | - | 0 W/m² | - |
| 1777877813 | 38.89° C | 88% | 988 hPa | - | - | 0 W/m² | - |
| 1777877491 | 38.33° C | 93% | 988 hPa | - | - | 0 W/m² | - |
| 1777877169 | 42.22° C | 80% | 989 hPa | - | - | 0 W/m² | - |
| 1777876847 | 36.67° C | 99% | 989 hPa | - | - | 0 W/m² | - |
| 1777876525 | 40° C | 85% | 989 hPa | - | - | 0 W/m² | - |
| 1777876203 | 40° C | 84% | 989 hPa | - | - | 0 W/m² | - |
| 1777875881 | 41.11° C | 82% | 989 hPa | - | - | 0 W/m² | - |
| 1777875560 | 38.33° C | 98% | 989 hPa | - | - | 0 W/m² | - |
| 1777875237 | 37.78° C | 99% | 989 hPa | - | - | 0 W/m² | - |
| 1777874915 | 38.89° C | 94% | 989 hPa | - | - | 0 W/m² | - |
| 1777874593 | 36.11° C | 99% | 989 hPa | - | - | 0 W/m² | - |
| 1777874271 | 38.89° C | 97% | 989 hPa | - | - | 0 W/m² | - |
| 1777873949 | 37.22° C | 99% | 989 hPa | - | - | 0 W/m² | - |
| 1777873627 | 35.56° C | 99% | 990 hPa | - | - | 0 W/m² | - |
| 1777873305 | 35° C | 99% | 990 hPa | - | - | 0 W/m² | - |
| 1777872983 | 33.33° C | 99% | 990 hPa | - | - | 0 W/m² | - |
| 1777872661 | 32.78° C | 99% | 990 hPa | - | - | 0 W/m² | - |
| 1777872339 | 32.78° C | 99% | 990 hPa | - | - | 0 W/m² | - |
| 1777872017 | 32.78° C | 99% | 990 hPa | - | - | 0 W/m² | - |
| 1777871695 | 33.89° C | 99% | 990 hPa | - | - | 0 W/m² | - |
| 1777871373 | 33.89° C | 99% | 990 hPa | - | - | 0 W/m² | - |
| 1777871051 | 34.44° C | 99% | 990 hPa | - | - | 0 W/m² | - |
| 1777870729 | 35.56° C | 99% | 990 hPa | - | - | 0 W/m² | - |
* Rain since midnight (hover to see other rain measurements)
** Current wind speed in m/s (hover to see current wind gust speed)